sensor_id;sensor_type;location;lat;lon;timestamp;pressure;altitude;pressure_sealevel;temperature;humidity
23619;BME280;18207;32.078;34.818;2022-12-18T00:02:01;101499.56;;;25.61;35.78
23619;BME280;18207;32.078;34.818;2022-12-18T00:04:32;101500.78;;;25.60;35.88
23619;BME280;18207;32.078;34.818;2022-12-18T00:07:03;101499.94;;;25.59;35.96
23619;BME280;18207;32.078;34.818;2022-12-18T00:09:36;101497.13;;;25.59;35.91
23619;BME280;18207;32.078;34.818;2022-12-18T00:12:07;101493.50;;;25.59;36.05
23619;BME280;18207;32.078;34.818;2022-12-18T00:14:45;101496.31;;;25.59;35.90
23619;BME280;18207;32.078;34.818;2022-12-18T00:17:15;101502.28;;;25.57;36.20
23619;BME280;18207;32.078;34.818;2022-12-18T00:19:46;101494.66;;;25.58;35.99
23619;BME280;18207;32.078;34.818;2022-12-18T00:22:18;101490.22;;;25.57;35.81
23619;BME280;18207;32.078;34.818;2022-12-18T00:24:50;101495.00;;;25.56;35.97
23619;BME280;18207;32.078;34.818;2022-12-18T00:27:20;101490.91;;;25.54;35.79
23619;BME280;18207;32.078;34.818;2022-12-18T00:29:50;101500.50;;;25.53;35.78
23619;BME280;18207;32.078;34.818;2022-12-18T00:32:20;101496.06;;;25.52;36.00
23619;BME280;18207;32.078;34.818;2022-12-18T00:34:50;101493.59;;;25.50;35.92
23619;BME280;18207;32.078;34.818;2022-12-18T00:37:20;101494.78;;;25.49;35.97
23619;BME280;18207;32.078;34.818;2022-12-18T00:39:52;101496.78;;;25.49;35.89
23619;BME280;18207;32.078;34.818;2022-12-18T00:42:22;101493.97;;;25.49;35.98
23619;BME280;18207;32.078;34.818;2022-12-18T00:45:10;101500.75;;;25.48;35.86
23619;BME280;18207;32.078;34.818;2022-12-18T00:47:40;101493.50;;;25.47;35.99
23619;BME280;18207;32.078;34.818;2022-12-18T00:50:10;101486.22;;;25.46;35.81
23619;BME280;18207;32.078;34.818;2022-12-18T00:52:41;101482.59;;;25.45;36.08
23619;BME280;18207;32.078;34.818;2022-12-18T00:55:14;101489.03;;;25.46;35.83
23619;BME280;18207;32.078;34.818;2022-12-18T00:57:45;101482.59;;;25.45;35.75
23619;BME280;18207;32.078;34.818;2022-12-18T01:00:16;101479.31;;;25.43;36.25
23619;BME280;18207;32.078;34.818;2022-12-18T01:02:46;101480.09;;;25.44;36.17
23619;BME280;18207;32.078;34.818;2022-12-18T01:05:17;101476.81;;;25.42;35.89
23619;BME280;18207;32.078;34.818;2022-12-18T01:07:48;101477.97;;;25.41;35.87
23619;BME280;18207;32.078;34.818;2022-12-18T01:10:20;101479.19;;;25.40;35.95
23619;BME280;18207;32.078;34.818;2022-12-18T01:12:51;101475.06;;;25.37;36.27
23619;BME280;18207;32.078;34.818;2022-12-18T01:15:22;101471.78;;;25.35;35.98
23619;BME280;18207;32.078;34.818;2022-12-18T01:17:53;101471.66;;;25.32;35.71
23619;BME280;18207;32.078;34.818;2022-12-18T01:20:23;101462.28;;;25.28;35.98
23619;BME280;18207;32.078;34.818;2022-12-18T01:22:53;101464.97;;;25.24;35.70
23619;BME280;18207;32.078;34.818;2022-12-18T01:25:25;101462.00;;;25.21;35.98
23619;BME280;18207;32.078;34.818;2022-12-18T01:27:56;101459.09;;;25.17;36.10
23619;BME280;18207;32.078;34.818;2022-12-18T01:30:26;101458.97;;;25.14;35.96
23619;BME280;18207;32.078;34.818;2022-12-18T01:32:56;101458.50;;;25.12;36.09
23619;BME280;18207;32.078;34.818;2022-12-18T01:35:26;101460.81;;;25.10;36.06
23619;BME280;18207;32.078;34.818;2022-12-18T01:37:57;101458.34;;;25.08;35.93
23619;BME280;18207;32.078;34.818;2022-12-18T01:40:29;101455.03;;;25.06;36.06
23619;BME280;18207;32.078;34.818;2022-12-18T01:42:59;101459.88;;;25.06;36.08
23619;BME280;18207;32.078;34.818;2022-12-18T01:45:32;101458.56;;;25.04;36.01
23619;BME280;18207;32.078;34.818;2022-12-18T01:48:05;101454.13;;;25.03;36.13
23619;BME280;18207;32.078;34.818;2022-12-18T01:50:39;101453.63;;;25.01;35.98
23619;BME280;18207;32.078;34.818;2022-12-18T01:53:14;101453.63;;;25.01;36.24
23619;BME280;18207;32.078;34.818;2022-12-18T01:55:54;101462.06;;;25.01;36.12
23619;BME280;18207;32.078;34.818;2022-12-18T01:58:32;101455.97;;;24.99;35.67
23619;BME280;18207;32.078;34.818;2022-12-18T02:01:06;101453.16;;;24.99;36.23
23619;BME280;18207;32.078;34.818;2022-12-18T02:03:37;101459.63;;;24.99;35.95
23619;BME280;18207;32.078;34.818;2022-12-18T02:06:14;101459.63;;;24.99;36.13
23619;BME280;18207;32.078;34.818;2022-12-18T02:08:58;101465.25;;;24.99;36.20
23619;BME280;18207;32.078;34.818;2022-12-18T02:11:42;101471.69;;;25.00;36.10
23619;BME280;18207;32.078;34.818;2022-12-18T02:14:26;101467.22;;;24.99;36.21
23619;BME280;18207;32.078;34.818;2022-12-18T02:17:06;101472.84;;;24.99;36.24
23619;BME280;18207;32.078;34.818;2022-12-18T02:19:55;101470.88;;;24.99;36.29
23619;BME280;18207;32.078;34.818;2022-12-18T02:22:44;101472.03;;;24.98;36.31
23619;BME280;18207;32.078;34.818;2022-12-18T02:28:25;101475.19;;;24.97;36.13
23619;BME280;18207;32.078;34.818;2022-12-18T02:31:00;101477.66;;;24.98;36.23
23619;BME280;18207;32.078;34.818;2022-12-18T02:33:33;101480.47;;;24.98;36.17
23619;BME280;18207;32.078;34.818;2022-12-18T02:36:07;101487.28;;;24.97;36.14
23619;BME280;18207;32.078;34.818;2022-12-18T02:38:41;101484.81;;;24.96;36.39
23619;BME280;18207;32.078;34.818;2022-12-18T02:41:14;101488.44;;;24.96;35.98
23619;BME280;18207;32.078;34.818;2022-12-18T02:43:56;101492.41;;;24.95;36.10
23619;BME280;18207;32.078;34.818;2022-12-18T02:46:35;101493.59;;;24.94;36.29
23619;BME280;18207;32.078;34.818;2022-12-18T02:49:22;101491.13;;;24.93;36.25
23619;BME280;18207;32.078;34.818;2022-12-18T02:52:03;101502.38;;;24.93;36.31
23619;BME280;18207;32.078;34.818;2022-12-18T02:54:50;101507.16;;;24.92;36.44
23619;BME280;18207;32.078;34.818;2022-12-18T02:57:32;101506.34;;;24.92;36.02
23619;BME280;18207;32.078;34.818;2022-12-18T03:00:11;101506.72;;;24.90;36.41
23619;BME280;18207;32.078;34.818;2022-12-18T03:02:48;101512.34;;;24.90;36.47
23619;BME280;18207;32.078;34.818;2022-12-18T03:05:27;101506.72;;;24.90;36.41
23619;BME280;18207;32.078;34.818;2022-12-18T03:08:00;101514.31;;;24.90;36.65
23619;BME280;18207;32.078;34.818;2022-12-18T03:10:39;101517.13;;;24.90;36.22
23619;BME280;18207;32.078;34.818;2022-12-18T03:13:19;101517.47;;;24.88;36.30
23619;BME280;18207;32.078;34.818;2022-12-18T03:15:56;101525.06;;;24.88;36.14
23619;BME280;18207;32.078;34.818;2022-12-18T03:18:33;101520.97;;;24.85;36.51
23619;BME280;18207;32.078;34.818;2022-12-18T03:21:08;101522.97;;;24.85;36.15
23619;BME280;18207;32.078;34.818;2022-12-18T03:23:46;101532.09;;;24.82;36.21
23619;BME280;18207;32.078;34.818;2022-12-18T03:26:22;101543.22;;;24.78;36.18
23619;BME280;18207;32.078;34.818;2022-12-18T03:28:59;101540.28;;;24.75;36.26
23619;BME280;18207;32.078;34.818;2022-12-18T03:31:33;101543.41;;;24.73;36.45
23619;BME280;18207;32.078;34.818;2022-12-18T03:34:09;101546.94;;;24.70;36.12
23619;BME280;18207;32.078;34.818;2022-12-18T03:36:41;101547.25;;;24.69;36.21
23619;BME280;18207;32.078;34.818;2022-12-18T03:39:11;101557.69;;;24.68;36.14
23619;BME280;18207;32.078;34.818;2022-12-18T03:41:46;101558.84;;;24.67;36.39
23619;BME280;18207;32.078;34.818;2022-12-18T03:44:26;101565.63;;;24.66;36.34
23619;BME280;18207;32.078;34.818;2022-12-18T03:47:09;101557.06;;;24.63;36.20
23619;BME280;18207;32.078;34.818;2022-12-18T03:49:50;101574.63;;;24.60;36.08
23619;BME280;18207;32.078;34.818;2022-12-18T03:52:30;101570.50;;;24.57;36.06
23619;BME280;18207;32.078;34.818;2022-12-18T03:55:03;101565.56;;;24.54;36.18
23619;BME280;18207;32.078;34.818;2022-12-18T03:57:36;101580.47;;;24.55;36.25
23619;BME280;18207;32.078;34.818;2022-12-18T04:00:11;101574.00;;;24.54;36.59
23619;BME280;18207;32.078;34.818;2022-12-18T04:02:48;101571.53;;;24.53;36.07
23619;BME280;18207;32.078;34.818;2022-12-18T04:05:20;101578.81;;;24.54;36.15
23619;BME280;18207;32.078;34.818;2022-12-18T04:07:53;101583.59;;;24.53;36.18
23619;BME280;18207;32.078;34.818;2022-12-18T04:10:25;101580.78;;;24.53;36.33
23619;BME280;18207;32.078;34.818;2022-12-18T04:12:57;101586.41;;;24.53;36.46
23619;BME280;18207;32.078;34.818;2022-12-18T04:15:28;101586.88;;;24.55;36.41
23619;BME280;18207;32.078;34.818;2022-12-18T04:18:01;101578.13;;;24.57;36.30
23619;BME280;18207;32.078;34.818;2022-12-18T04:20:31;101594.63;;;24.58;36.33
23619;BME280;18207;32.078;34.818;2022-12-18T04:23:02;101592.63;;;24.59;36.13
23619;BME280;18207;32.078;34.818;2022-12-18T04:25:32;101599.91;;;24.60;36.32
23619;BME280;18207;32.078;34.818;2022-12-18T04:28:02;101595.13;;;24.60;36.50
23619;BME280;18207;32.078;34.818;2022-12-18T04:30:33;101602.41;;;24.61;36.18
23619;BME280;18207;32.078;34.818;2022-12-18T04:33:08;101602.41;;;24.61;36.26
23619;BME280;18207;32.078;34.818;2022-12-18T04:35:38;101606.38;;;24.60;36.18
23619;BME280;18207;32.078;34.818;2022-12-18T04:38:09;101603.88;;;24.59;36.15
23619;BME280;18207;32.078;34.818;2022-12-18T04:40:40;101609.50;;;24.59;36.44
23619;BME280;18207;32.078;34.818;2022-12-18T04:43:09;101602.22;;;24.58;36.07
23619;BME280;18207;32.078;34.818;2022-12-18T04:45:40;101603.44;;;24.57;36.51
23619;BME280;18207;32.078;34.818;2022-12-18T04:48:12;101603.75;;;24.55;36.08
23619;BME280;18207;32.078;34.818;2022-12-18T04:50:42;101611.38;;;24.55;36.34
23619;BME280;18207;32.078;34.818;2022-12-18T04:53:12;101605.75;;;24.55;36.19
23619;BME280;18207;32.078;34.818;2022-12-18T04:55:43;101615.00;;;24.55;36.21
23619;BME280;18207;32.078;34.818;2022-12-18T04:58:13;101613.69;;;24.53;36.21
23619;BME280;18207;32.078;34.818;2022-12-18T05:00:43;101622.13;;;24.53;36.53
23619;BME280;18207;32.078;34.818;2022-12-18T05:03:15;101616.50;;;24.53;36.44
23619;BME280;18207;32.078;34.818;2022-12-18T05:05:49;101626.91;;;24.52;36.38
23619;BME280;18207;32.078;34.818;2022-12-18T05:08:19;101628.91;;;24.52;36.09
23619;BME280;18207;32.078;34.818;2022-12-18T05:10:49;101626.09;;;24.52;36.11
23619;BME280;18207;32.078;34.818;2022-12-18T05:13:19;101628.41;;;24.50;36.14
23619;BME280;18207;32.078;34.818;2022-12-18T05:15:52;101629.25;;;24.50;36.38
23619;BME280;18207;32.078;34.818;2022-12-18T05:18:24;101632.88;;;24.51;35.94
23619;BME280;18207;32.078;34.818;2022-12-18T05:20:55;101630.91;;;24.51;36.23
23619;BME280;18207;32.078;34.818;2022-12-18T05:23:25;101639.78;;;24.53;36.32
23619;BME280;18207;32.078;34.818;2022-12-18T05:25:58;101631.84;;;24.55;36.05
23619;BME280;18207;32.078;34.818;2022-12-18T05:28:31;101631.19;;;24.58;36.23
23619;BME280;18207;32.078;34.818;2022-12-18T05:31:03;101638.09;;;24.61;36.34
23619;BME280;18207;32.078;34.818;2022-12-18T05:33:35;101631.81;;;24.64;36.25
23619;BME280;18207;32.078;34.818;2022-12-18T05:36:08;101641.53;;;24.66;36.25
23619;BME280;18207;32.078;34.818;2022-12-18T05:38:40;101636.41;;;24.68;36.13
23619;BME280;18207;32.078;34.818;2022-12-18T05:41:10;101632.91;;;24.71;36.64
23619;BME280;18207;32.078;34.818;2022-12-18T05:43:41;101638.19;;;24.73;36.47
23619;BME280;18207;32.078;34.818;2022-12-18T05:46:15;101641.13;;;24.76;36.45
23619;BME280;18207;32.078;34.818;2022-12-18T05:48:48;101643.59;;;24.78;36.33
23619;BME280;18207;32.078;34.818;2022-12-18T05:51:21;101650.53;;;24.80;36.59
23619;BME280;18207;32.078;34.818;2022-12-18T05:53:52;101649.84;;;24.83;36.67
23619;BME280;18207;32.078;34.818;2022-12-18T05:56:22;101658.75;;;24.85;36.51
23619;BME280;18207;32.078;34.818;2022-12-18T05:58:54;101660.88;;;24.88;36.67
23619;BME280;18207;32.078;34.818;2022-12-18T06:01:26;101653.75;;;24.91;36.64
23619;BME280;18207;32.078;34.818;2022-12-18T06:03:59;101664.31;;;24.94;36.56
23619;BME280;18207;32.078;34.818;2022-12-18T06:06:30;101666.44;;;24.97;36.65
23619;BME280;18207;32.078;34.818;2022-12-18T06:09:01;101670.22;;;25.01;36.63
23619;BME280;18207;32.078;34.818;2022-12-18T06:11:37;101666.84;;;25.07;36.96
23619;BME280;18207;32.078;34.818;2022-12-18T06:14:08;101671.41;;;25.20;37.01
23619;BME280;18207;32.078;34.818;2022-12-18T06:16:38;101668.06;;;25.38;37.02
23619;BME280;18207;32.078;34.818;2022-12-18T06:19:16;101669.81;;;25.63;37.32
23619;BME280;18207;32.078;34.818;2022-12-18T06:21:46;101668.38;;;25.90;37.23
23619;BME280;18207;32.078;34.818;2022-12-18T06:24:17;101673.47;;;26.20;37.59
23619;BME280;18207;32.078;34.818;2022-12-18T06:26:47;101665.97;;;26.48;37.79
23619;BME280;18207;32.078;34.818;2022-12-18T06:29:17;101667.34;;;26.78;37.91
23619;BME280;18207;32.078;34.818;2022-12-18T06:31:47;101668.72;;;27.07;37.82
23619;BME280;18207;32.078;34.818;2022-12-18T06:34:18;101674.47;;;27.38;38.02
23619;BME280;18207;32.078;34.818;2022-12-18T06:36:49;101677.44;;;27.69;37.98
23619;BME280;18207;32.078;34.818;2022-12-18T06:39:19;101680.63;;;27.98;37.98
23619;BME280;18207;32.078;34.818;2022-12-18T06:41:49;101680.22;;;28.27;38.16
23619;BME280;18207;32.078;34.818;2022-12-18T06:44:20;101684.22;;;28.57;37.80
23619;BME280;18207;32.078;34.818;2022-12-18T06:46:50;101674.41;;;28.85;37.85
23619;BME280;18207;32.078;34.818;2022-12-18T06:49:22;101677.03;;;29.13;37.49
23619;BME280;18207;32.078;34.818;2022-12-18T06:51:57;101687.75;;;29.38;37.90
23619;BME280;18207;32.078;34.818;2022-12-18T06:54:27;101675.66;;;29.60;37.88
23619;BME280;18207;32.078;34.818;2022-12-18T06:56:57;101673.69;;;29.83;37.54
23619;BME280;18207;32.078;34.818;2022-12-18T06:59:27;101679.00;;;30.07;37.32
23619;BME280;18207;32.078;34.818;2022-12-18T07:01:58;101687.16;;;30.31;37.06
23619;BME280;18207;32.078;34.818;2022-12-18T07:04:31;101677.44;;;30.54;37.71
23619;BME280;18207;32.078;34.818;2022-12-18T07:07:01;101684.69;;;30.77;36.79
23619;BME280;18207;32.078;34.818;2022-12-18T07:09:32;101677.72;;;31.01;36.93
23619;BME280;18207;32.078;34.818;2022-12-18T07:12:02;101682.53;;;31.23;37.27
23619;BME280;18207;32.078;34.818;2022-12-18T07:14:33;101677.13;;;31.43;37.04
23619;BME280;18207;32.078;34.818;2022-12-18T07:17:03;101676.19;;;31.62;36.42
23619;BME280;18207;32.078;34.818;2022-12-18T07:19:35;101676.38;;;31.83;36.98
23619;BME280;18207;32.078;34.818;2022-12-18T07:22:05;101679.84;;;32.02;36.29
23619;BME280;18207;32.078;34.818;2022-12-18T07:24:35;101680.09;;;32.23;36.68
23619;BME280;18207;32.078;34.818;2022-12-18T07:27:05;101677.00;;;32.42;36.04
23619;BME280;18207;32.078;34.818;2022-12-18T07:29:36;101677.63;;;32.65;36.01
23619;BME280;18207;32.078;34.818;2022-12-18T07:32:07;101674.91;;;32.86;35.77
23619;BME280;18207;32.078;34.818;2022-12-18T07:34:39;101670.16;;;33.07;36.00
23619;BME280;18207;32.078;34.818;2022-12-18T07:37:09;101669.47;;;33.27;35.63
23619;BME280;18207;32.078;34.818;2022-12-18T07:39:40;101663.44;;;33.50;36.16
23619;BME280;18207;32.078;34.818;2022-12-18T07:42:10;101663.53;;;33.71;35.46
23619;BME280;18207;32.078;34.818;2022-12-18T07:44:57;101664.81;;;33.94;35.95
23619;BME280;18207;32.078;34.818;2022-12-18T07:47:27;101655.50;;;34.18;35.91
23619;BME280;18207;32.078;34.818;2022-12-18T07:50:05;101643.66;;;34.40;35.07
23619;BME280;18207;32.078;34.818;2022-12-18T07:52:35;101646.53;;;34.61;35.42
23619;BME280;18207;32.078;34.818;2022-12-18T07:55:06;101646.50;;;34.79;35.25
23619;BME280;18207;32.078;34.818;2022-12-18T07:57:36;101638.28;;;34.98;34.52
23619;BME280;18207;32.078;34.818;2022-12-18T08:00:27;101632.53;;;35.15;34.35
23619;BME280;18207;32.078;34.818;2022-12-18T08:02:57;101629.19;;;35.31;34.53
23619;BME280;18207;32.078;34.818;2022-12-18T08:05:29;101636.88;;;35.48;34.23
23619;BME280;18207;32.078;34.818;2022-12-18T08:07:59;101622.50;;;35.65;33.86
23619;BME280;18207;32.078;34.818;2022-12-18T08:10:30;101628.06;;;35.89;34.25
23619;BME280;18207;32.078;34.818;2022-12-18T08:13:01;101621.34;;;36.17;34.05
23619;BME280;18207;32.078;34.818;2022-12-18T08:15:32;101613.72;;;36.47;34.53
23619;BME280;18207;32.078;34.818;2022-12-18T08:18:02;101615.03;;;36.76;34.38
23619;BME280;18207;32.078;34.818;2022-12-18T08:20:45;101613.06;;;37.06;33.45
23619;BME280;18207;32.078;34.818;2022-12-18T08:23:16;101608.28;;;37.30;33.65
23619;BME280;18207;32.078;34.818;2022-12-18T08:25:46;101598.47;;;37.57;32.86
23619;BME280;18207;32.078;34.818;2022-12-18T08:28:18;101603.81;;;37.85;32.95
23619;BME280;18207;32.078;34.818;2022-12-18T08:30:52;101597.97;;;38.15;32.65
23619;BME280;18207;32.078;34.818;2022-12-18T08:33:22;101587.22;;;38.45;32.65
23619;BME280;18207;32.078;34.818;2022-12-18T08:35:53;101574.72;;;38.74;32.21
23619;BME280;18207;32.078;34.818;2022-12-18T08:38:23;101571.63;;;39.04;31.09
23619;BME280;18207;32.078;34.818;2022-12-18T08:40:59;101558.19;;;39.37;30.95
23619;BME280;18207;32.078;34.818;2022-12-18T08:43:29;101564.16;;;39.65;30.25
23619;BME280;18207;32.078;34.818;2022-12-18T08:46:20;101562.34;;;39.71;29.81
23619;BME280;18207;32.078;34.818;2022-12-18T08:48:52;101553.47;;;39.46;29.00
23619;BME280;18207;32.078;34.818;2022-12-18T08:51:25;101551.31;;;39.15;28.49
23619;BME280;18207;32.078;34.818;2022-12-18T08:53:55;101540.97;;;38.78;28.56
23619;BME280;18207;32.078;34.818;2022-12-18T08:56:25;101545.41;;;38.41;27.87
23619;BME280;18207;32.078;34.818;2022-12-18T08:58:56;101537.16;;;37.97;27.63
23619;BME280;18207;32.078;34.818;2022-12-18T09:01:27;101529.31;;;37.48;27.57
23619;BME280;18207;32.078;34.818;2022-12-18T09:03:58;101528.78;;;37.00;27.61
23619;BME280;18207;32.078;34.818;2022-12-18T09:06:30;101528.47;;;36.58;27.40
23619;BME280;18207;32.078;34.818;2022-12-18T09:09:02;101544.00;;;36.20;27.70
23619;BME280;18207;32.078;34.818;2022-12-18T09:11:33;101527.94;;;35.83;27.73
23619;BME280;18207;32.078;34.818;2022-12-18T09:14:03;101524.53;;;35.47;27.25
23619;BME280;18207;32.078;34.818;2022-12-18T09:16:34;101523.88;;;35.19;27.67
23619;BME280;18207;32.078;34.818;2022-12-18T09:19:05;101524.78;;;34.92;27.74
23619;BME280;18207;32.078;34.818;2022-12-18T09:21:39;101517.16;;;34.68;27.30
23619;BME280;18207;32.078;34.818;2022-12-18T09:24:15;101513.94;;;34.41;27.21
23619;BME280;18207;32.078;34.818;2022-12-18T09:26:45;101506.25;;;34.21;27.49
23619;BME280;18207;32.078;34.818;2022-12-18T09:29:17;101502.56;;;34.03;27.21
23619;BME280;18207;32.078;34.818;2022-12-18T09:31:47;101499.31;;;33.94;28.02
23619;BME280;18207;32.078;34.818;2022-12-18T09:34:17;101503.00;;;33.95;28.13
23619;BME280;18207;32.078;34.818;2022-12-18T09:36:51;101486.69;;;34.02;28.06
23619;BME280;18207;32.078;34.818;2022-12-18T09:39:22;101490.34;;;34.03;27.48
23619;BME280;18207;32.078;34.818;2022-12-18T09:41:55;101486.28;;;33.97;27.82
23619;BME280;18207;32.078;34.818;2022-12-18T09:44:30;101482.63;;;33.86;27.66
23619;BME280;18207;32.078;34.818;2022-12-18T09:47:13;101474.50;;;33.70;27.78
23619;BME280;18207;32.078;34.818;2022-12-18T09:49:49;101476.09;;;33.50;27.50
23619;BME280;18207;32.078;34.818;2022-12-18T09:52:27;101473.63;;;33.28;27.12
23619;BME280;18207;32.078;34.818;2022-12-18T09:55:05;101466.25;;;33.10;27.38
23619;BME280;18207;32.078;34.818;2022-12-18T09:57:45;101466.19;;;32.92;27.47
23619;BME280;18207;32.078;34.818;2022-12-18T10:00:20;101463.69;;;32.73;27.52
23619;BME280;18207;32.078;34.818;2022-12-18T10:02:57;101454.66;;;32.57;26.95
23619;BME280;18207;32.078;34.818;2022-12-18T10:05:41;101448.47;;;32.41;27.23
23619;BME280;18207;32.078;34.818;2022-12-18T10:08:22;101429.28;;;32.28;27.62
23619;BME280;18207;32.078;34.818;2022-12-18T10:11:03;101441.41;;;32.15;27.15
23619;BME280;18207;32.078;34.818;2022-12-18T10:13:47;101427.09;;;32.01;27.06
23619;BME280;18207;32.078;34.818;2022-12-18T10:16:35;101425.38;;;31.89;27.58
23619;BME280;18207;32.078;34.818;2022-12-18T10:19:25;101428.94;;;31.76;27.58
23619;BME280;18207;32.078;34.818;2022-12-18T10:22:19;101416.31;;;31.66;27.10
23619;BME280;18207;32.078;34.818;2022-12-18T10:25:16;101425.16;;;31.58;27.65
23619;BME280;18207;32.078;34.818;2022-12-18T10:27:54;101415.31;;;31.48;27.28
23619;BME280;18207;32.078;34.818;2022-12-18T10:30:26;101404.66;;;31.38;27.70
23619;BME280;18207;32.078;34.818;2022-12-18T10:33:01;101402.19;;;31.33;27.27
23619;BME280;18207;32.078;34.818;2022-12-18T10:35:32;101409.03;;;31.26;27.46
23619;BME280;18207;32.078;34.818;2022-12-18T10:38:21;101403.69;;;31.17;27.17
23619;BME280;18207;32.078;34.818;2022-12-18T10:40:57;101395.47;;;31.09;27.36
23619;BME280;18207;32.078;34.818;2022-12-18T10:43:29;101401.53;;;31.04;27.55
23619;BME280;18207;32.078;34.818;2022-12-18T10:46:12;101407.47;;;30.95;27.63
23619;BME280;18207;32.078;34.818;2022-12-18T10:48:54;101395.25;;;30.88;27.13
23619;BME280;18207;32.078;34.818;2022-12-18T10:51:28;101401.69;;;30.81;27.30
23619;BME280;18207;32.078;34.818;2022-12-18T10:54:04;101389.41;;;30.74;27.82
23619;BME280;18207;32.078;34.818;2022-12-18T10:56:38;101394.63;;;30.68;27.33
23619;BME280;18207;32.078;34.818;2022-12-18T10:59:16;101386.47;;;30.63;27.36
23619;BME280;18207;32.078;34.818;2022-12-18T11:01:50;101394.53;;;30.58;27.78
23619;BME280;18207;32.078;34.818;2022-12-18T11:04:25;101382.31;;;30.54;27.24
23619;BME280;18207;32.078;34.818;2022-12-18T11:07:00;101383.06;;;30.51;27.72
23619;BME280;18207;32.078;34.818;2022-12-18T11:09:32;101373.69;;;30.47;27.54
23619;BME280;18207;32.078;34.818;2022-12-18T11:12:19;101384.59;;;30.45;27.59
23619;BME280;18207;32.078;34.818;2022-12-18T11:14:53;101376.84;;;30.42;27.40
23619;BME280;18207;32.078;34.818;2022-12-18T11:17:30;101364.66;;;30.38;27.25
23619;BME280;18207;32.078;34.818;2022-12-18T11:20:05;101366.63;;;30.34;27.32
23619;BME280;18207;32.078;34.818;2022-12-18T11:22:37;101368.25;;;30.32;27.38
23619;BME280;18207;32.078;34.818;2022-12-18T11:25:19;101372.28;;;30.31;27.58
23619;BME280;18207;32.078;34.818;2022-12-18T11:28:05;101365.72;;;30.27;27.96
23619;BME280;18207;32.078;34.818;2022-12-18T11:31:20;101370.56;;;30.23;27.72
23619;BME280;18207;32.078;34.818;2022-12-18T11:33:58;101360.38;;;30.18;27.74
23619;BME280;18207;32.078;34.818;2022-12-18T11:36:50;101367.19;;;30.14;27.63
23619;BME280;18207;32.078;34.818;2022-12-18T11:39:31;101360.25;;;30.11;28.18
23619;BME280;18207;32.078;34.818;2022-12-18T11:42:12;101366.31;;;30.10;28.16
23619;BME280;18207;32.078;34.818;2022-12-18T11:44:53;101367.94;;;30.07;27.90
23619;BME280;18207;32.078;34.818;2022-12-18T11:47:35;101361.38;;;30.03;27.59
23619;BME280;18207;32.078;34.818;2022-12-18T11:50:19;101371.47;;;30.01;28.21
23619;BME280;18207;32.078;34.818;2022-12-18T11:52:51;101367.78;;;29.97;28.20
23619;BME280;18207;32.078;34.818;2022-12-18T11:55:40;101368.16;;;29.95;27.98
23619;BME280;18207;32.078;34.818;2022-12-18T11:58:27;101370.56;;;29.93;27.76
23619;BME280;18207;32.078;34.818;2022-12-18T12:01:16;101370.91;;;29.92;27.75
23619;BME280;18207;32.078;34.818;2022-12-18T12:04:19;101368.41;;;29.87;28.20
23619;BME280;18207;32.078;34.818;2022-12-18T12:07:13;101366.81;;;29.86;28.10
23619;BME280;18207;32.078;34.818;2022-12-18T12:10:00;101368.38;;;29.83;27.90
23619;BME280;18207;32.078;34.818;2022-12-18T12:12:46;101364.28;;;29.81;27.91
23619;BME280;18207;32.078;34.818;2022-12-18T12:15:34;101359.38;;;29.78;27.95
23619;BME280;18207;32.078;34.818;2022-12-18T12:18:36;101360.16;;;29.75;28.27
23619;BME280;18207;32.078;34.818;2022-12-18T12:21:20;101351.22;;;29.73;28.18
23619;BME280;18207;32.078;34.818;2022-12-18T12:24:02;101358.88;;;29.72;28.16
23619;BME280;18207;32.078;34.818;2022-12-18T12:26:45;101359.72;;;29.73;27.82
23619;BME280;18207;32.078;34.818;2022-12-18T12:29:36;101360.91;;;29.72;28.14
23619;BME280;18207;32.078;34.818;2022-12-18T12:32:25;101358.47;;;29.70;28.04
23619;BME280;18207;32.078;34.818;2022-12-18T12:35:18;101357.22;;;29.68;28.17
23619;BME280;18207;32.078;34.818;2022-12-18T12:38:06;101355.97;;;29.65;28.33
23619;BME280;18207;32.078;34.818;2022-12-18T12:40:44;101358.00;;;29.65;28.02
23619;BME280;18207;32.078;34.818;2022-12-18T12:43:33;101350.25;;;29.62;28.22
23619;BME280;18207;32.078;34.818;2022-12-18T12:46:07;101352.63;;;29.60;28.05
23619;BME280;18207;32.078;34.818;2022-12-18T12:48:44;101351.84;;;29.59;28.02
23619;BME280;18207;32.078;34.818;2022-12-18T12:51:22;101354.66;;;29.59;28.27
23619;BME280;18207;32.078;34.818;2022-12-18T12:53:56;101346.53;;;29.58;28.54
23619;BME280;18207;32.078;34.818;2022-12-18T12:56:42;101357.06;;;29.57;28.31
23619;BME280;18207;32.078;34.818;2022-12-18T12:59:24;101357.47;;;29.56;28.44
23619;BME280;18207;32.078;34.818;2022-12-18T13:02:09;101348.88;;;29.52;28.10
23619;BME280;18207;32.078;34.818;2022-12-18T13:04:50;101352.94;;;29.52;28.53
23619;BME280;18207;32.078;34.818;2022-12-18T13:07:34;101348.47;;;29.51;28.03
23619;BME280;18207;32.078;34.818;2022-12-18T13:10:24;101357.72;;;29.48;28.20
23619;BME280;18207;32.078;34.818;2022-12-18T13:12:58;101357.28;;;29.46;28.21
23619;BME280;18207;32.078;34.818;2022-12-18T13:15:39;101352.00;;;29.44;28.45
23619;BME280;18207;32.078;34.818;2022-12-18T13:18:19;101362.91;;;29.42;28.29
23619;BME280;18207;32.078;34.818;2022-12-18T13:21:12;101372.59;;;29.41;28.72
23619;BME280;18207;32.078;34.818;2022-12-18T13:23:51;101374.16;;;29.39;28.61
23619;BME280;18207;32.078;34.818;2022-12-18T13:26:32;101367.66;;;29.38;28.69